Time;durP1;ratioP1;P1;durP2;ratioP2;P2;SDS_P1;SDS_P2;PMS_P1;PMS_P2;Temp;Humidity;BMP_temperature;BMP_pressure;BME280_temperature;BME280_humidity;BME280_pressure;Samples;Min_cycle;Max_cycle;Signal;HPM_P1;HPM_P2
2021/10/24 00:00:15;;;;;;;19.48;16.02;;;;;;;;;;5094849;28;20200;-73
2021/10/24 00:02:42;;;;;;;20.67;15.18;;;;;;;;;;5094524;28;20556;-74
2021/10/24 00:05:10;;;;;;;24.15;16.00;;;;;;;;;;5094158;28;20572;-73
2021/10/24 00:07:37;;;;;;;23.23;17.40;;;;;;;;;;5093656;28;20229;-73
2021/10/24 00:10:06;;;;;;;24.70;17.95;;;;;;;;;;5093831;28;20280;-73
2021/10/24 00:12:34;;;;;;;30.00;19.00;;;;;;;;;;5094127;28;20203;-73
2021/10/24 00:15:01;;;;;;;22.40;17.52;;;;;;;;;;5094108;28;20226;-73
2021/10/24 00:17:28;;;;;;;27.40;17.90;;;;;;;;;;5093588;28;20240;-73
2021/10/24 00:19:55;;;;;;;27.98;18.20;;;;;;;;;;5093871;28;20196;-74
2021/10/24 00:22:22;;;;;;;34.00;18.40;;;;;;;;;;5093622;28;20568;-74
2021/10/24 00:24:50;;;;;;;34.28;19.95;;;;;;;;;;5093823;28;20195;-74
2021/10/24 00:27:18;;;;;;;30.63;19.73;;;;;;;;;;5093470;28;20204;-74
2021/10/24 00:29:46;;;;;;;30.40;20.08;;;;;;;;;;5093460;28;20290;-73
2021/10/24 00:32:14;;;;;;;38.30;20.13;;;;;;;;;;5093723;28;20201;-73
2021/10/24 00:34:41;;;;;;;34.92;20.85;;;;;;;;;;5093806;28;20216;-75
2021/10/24 00:37:08;;;;;;;30.90;21.30;;;;;;;;;;5093378;28;20208;-74
2021/10/24 00:39:35;;;;;;;30.20;20.30;;;;;;;;;;5093339;28;20545;-74
2021/10/24 00:42:03;;;;;;;38.10;21.90;;;;;;;;;;5094606;28;20288;-74
2021/10/24 00:44:33;;;;;;;34.25;19.70;;;;;;;;;;5093663;28;20208;-74
2021/10/24 00:47:02;;;;;;;29.02;19.88;;;;;;;;;;5093257;28;20232;-74
2021/10/24 00:49:29;;;;;;;32.25;20.15;;;;;;;;;;5094344;28;20196;-73
2021/10/24 00:51:57;;;;;;;25.75;18.05;;;;;;;;;;5097100;28;20285;-73
2021/10/24 00:54:25;;;;;;;26.60;17.08;;;;;;;;;;5097887;28;20207;-74
2021/10/24 00:56:54;;;;;;;19.10;15.25;;;;;;;;;;5097367;28;20191;-74
2021/10/24 00:59:22;;;;;;;21.10;15.75;;;;;;;;;;5097659;28;20202;-74
2021/10/24 01:01:51;;;;;;;18.55;14.70;;;;;;;;;;5097070;28;20264;-74
2021/10/24 01:04:19;;;;;;;30.25;16.60;;;;;;;;;;5097037;28;20200;-74
2021/10/24 01:06:46;;;;;;;19.65;15.10;;;;;;;;;;5097528;28;20214;-73
2021/10/24 01:09:14;;;;;;;21.52;15.23;;;;;;;;;;5097032;28;20220;-74
2021/10/24 01:11:42;;;;;;;25.05;16.90;;;;;;;;;;5096625;28;20196;-74
2021/10/24 01:14:09;;;;;;;25.10;19.88;;;;;;;;;;5097834;28;20202;-73
2021/10/24 01:16:37;;;;;;;23.77;17.30;;;;;;;;;;5097058;28;20222;-74
2021/10/24 01:19:06;;;;;;;26.17;19.40;;;;;;;;;;5096536;28;20200;-74
2021/10/24 01:21:35;;;;;;;30.40;20.20;;;;;;;;;;5097067;28;20198;-74
2021/10/24 01:24:03;;;;;;;28.20;18.27;;;;;;;;;;5096826;28;20737;-74
2021/10/24 01:26:30;;;;;;;30.77;19.40;;;;;;;;;;5096715;28;20720;-74
2021/10/24 01:28:58;;;;;;;33.13;18.00;;;;;;;;;;5096346;28;20288;-75
2021/10/24 01:31:25;;;;;;;26.75;18.90;;;;;;;;;;5096727;28;20192;-73
2021/10/24 01:33:52;;;;;;;28.13;19.48;;;;;;;;;;5096649;28;20208;-74
2021/10/24 01:36:20;;;;;;;29.52;18.25;;;;;;;;;;5096358;28;20307;-74
2021/10/24 01:38:50;;;;;;;26.63;18.35;;;;;;;;;;5096117;28;20225;-74
2021/10/24 01:41:18;;;;;;;27.88;20.80;;;;;;;;;;5096482;28;20200;-74
2021/10/24 01:43:46;;;;;;;28.45;19.83;;;;;;;;;;5096147;28;20571;-74
2021/10/24 01:46:14;;;;;;;27.35;18.42;;;;;;;;;;5096439;28;20227;-74
2021/10/24 01:48:41;;;;;;;32.15;18.38;;;;;;;;;;5096439;28;20552;-74
2021/10/24 01:51:08;;;;;;;32.88;21.38;;;;;;;;;;5096341;28;20199;-74
2021/10/24 01:53:37;;;;;;;40.05;22.08;;;;;;;;;;5096186;28;20296;-73
2021/10/24 01:56:06;;;;;;;30.33;20.95;;;;;;;;;;5096014;28;20215;-73
2021/10/24 01:58:33;;;;;;;30.63;19.83;;;;;;;;;;5095988;28;20207;-73
2021/10/24 02:01:00;;;;;;;26.80;19.25;;;;;;;;;;5095739;28;20192;-73
2021/10/24 02:03:27;;;;;;;28.75;19.00;;;;;;;;;;5096156;28;20192;-73
2021/10/24 02:05:55;;;;;;;29.85;17.20;;;;;;;;;;5096373;28;20554;-74
2021/10/24 02:08:22;;;;;;;31.05;17.67;;;;;;;;;;5095822;28;20312;-74
2021/10/24 02:10:49;;;;;;;26.02;14.93;;;;;;;;;;5095894;28;20287;-74
2021/10/24 02:13:18;;;;;;;24.70;16.60;;;;;;;;;;5095641;28;20213;-73
2021/10/24 02:15:45;;;;;;;23.55;15.80;;;;;;;;;;5096260;28;20313;-74
2021/10/24 02:18:13;;;;;;;23.15;16.42;;;;;;;;;;5095480;28;20191;-74
2021/10/24 02:20:41;;;;;;;25.92;16.42;;;;;;;;;;5095202;28;20674;-73
2021/10/24 02:23:08;;;;;;;23.83;15.63;;;;;;;;;;5095710;28;20622;-73
2021/10/24 02:25:37;;;;;;;20.40;14.52;;;;;;;;;;5095868;28;20199;-74
2021/10/24 02:28:05;;;;;;;18.98;14.23;;;;;;;;;;5095752;28;20240;-74
2021/10/24 02:30:34;;;;;;;17.25;13.20;;;;;;;;;;5095505;28;20197;-74
2021/10/24 02:33:01;;;;;;;20.10;13.70;;;;;;;;;;5095452;28;20652;-74
2021/10/24 02:35:28;;;;;;;22.77;14.57;;;;;;;;;;5095604;28;20213;-74
2021/10/24 02:37:55;;;;;;;21.55;14.55;;;;;;;;;;5095444;28;20202;-73
2021/10/24 02:40:23;;;;;;;21.88;14.65;;;;;;;;;;5095311;28;20581;-73
2021/10/24 02:42:50;;;;;;;16.10;13.18;;;;;;;;;;5095148;28;20300;-74
2021/10/24 02:45:18;;;;;;;16.90;13.70;;;;;;;;;;5094911;28;20667;-74
2021/10/24 02:47:46;;;;;;;18.58;13.05;;;;;;;;;;5095138;28;20192;-73
2021/10/24 02:50:14;;;;;;;19.80;13.90;;;;;;;;;;5095105;28;20294;-75
2021/10/24 02:52:41;;;;;;;17.55;13.25;;;;;;;;;;5094856;28;20297;-75
2021/10/24 02:55:09;;;;;;;14.77;12.60;;;;;;;;;;5095070;28;20204;-74
2021/10/24 02:57:36;;;;;;;18.38;13.52;;;;;;;;;;5094815;28;20282;-74
2021/10/24 03:00:04;;;;;;;16.65;12.23;;;;;;;;;;5095156;28;20201;-73
2021/10/24 03:02:32;;;;;;;18.85;12.63;;;;;;;;;;5094807;28;20277;-74
2021/10/24 03:05:00;;;;;;;14.30;11.15;;;;;;;;;;5094692;28;20551;-74
2021/10/24 03:07:27;;;;;;;16.10;12.23;;;;;;;;;;5094369;28;20230;-74
2021/10/24 03:09:55;;;;;;;15.98;12.32;;;;;;;;;;5094691;28;20665;-74
2021/10/24 03:12:22;;;;;;;15.90;11.77;;;;;;;;;;5094664;28;20289;-74
2021/10/24 03:14:49;;;;;;;20.02;11.77;;;;;;;;;;5093887;28;20192;-74
2021/10/24 03:17:16;;;;;;;17.10;11.00;;;;;;;;;;5094148;28;20705;-74
2021/10/24 03:19:43;;;;;;;14.75;11.40;;;;;;;;;;5094432;28;20551;-74
2021/10/24 03:22:12;;;;;;;19.83;12.88;;;;;;;;;;5094956;28;20212;-74
2021/10/24 03:24:39;;;;;;;15.40;12.10;;;;;;;;;;5094986;28;20195;-74
2021/10/24 03:27:06;;;;;;;17.85;11.52;;;;;;;;;;5094354;28;20204;-74
2021/10/24 03:29:34;;;;;;;14.77;12.50;;;;;;;;;;5094388;28;20194;-74
2021/10/24 03:32:01;;;;;;;17.92;12.82;;;;;;;;;;5094264;28;20200;-74
2021/10/24 03:34:28;;;;;;;15.80;11.90;;;;;;;;;;5094272;28;20195;-73
2021/10/24 03:36:56;;;;;;;15.88;12.05;;;;;;;;;;5093933;28;20225;-73
2021/10/24 03:39:24;;;;;;;15.48;11.70;;;;;;;;;;5094141;28;20194;-74
2021/10/24 03:41:51;;;;;;;15.85;10.95;;;;;;;;;;5094125;28;20288;-74
2021/10/24 03:44:19;;;;;;;19.42;11.55;;;;;;;;;;5093642;28;20746;-73
2021/10/24 03:46:46;;;;;;;17.88;11.95;;;;;;;;;;5093780;28;20531;-75
2021/10/24 03:49:13;;;;;;;15.57;12.45;;;;;;;;;;5093881;28;20205;-75
2021/10/24 03:51:40;;;;;;;19.60;14.98;;;;;;;;;;5093745;28;20712;-75
2021/10/24 03:54:07;;;;;;;17.98;11.73;;;;;;;;;;5094041;28;20221;-75
2021/10/24 03:56:36;;;;;;;15.63;11.57;;;;;;;;;;5093737;28;20218;-75
2021/10/24 03:59:03;;;;;;;15.68;10.77;;;;;;;;;;5093657;28;20201;-75
2021/10/24 04:01:30;;;;;;;14.82;10.80;;;;;;;;;;5093179;28;20647;-75
2021/10/24 04:03:57;;;;;;;14.50;11.20;;;;;;;;;;5093752;28;20194;-74
2021/10/24 04:06:25;;;;;;;13.68;11.43;;;;;;;;;;5093887;28;20201;-73
2021/10/24 04:08:52;;;;;;;15.82;11.65;;;;;;;;;;5094225;28;20237;-74
2021/10/24 04:11:20;;;;;;;19.13;12.25;;;;;;;;;;5093400;28;20197;-74
2021/10/24 04:13:49;;;;;;;11.02;9.48;;;;;;;;;;5093361;28;20737;-75
2021/10/24 04:16:16;;;;;;;13.82;11.95;;;;;;;;;;5093139;28;20225;-74
2021/10/24 04:18:43;;;;;;;14.93;12.63;;;;;;;;;;5093600;28;20221;-74
2021/10/24 04:21:11;;;;;;;12.00;10.35;;;;;;;;;;5093336;28;20201;-74
2021/10/24 04:23:38;;;;;;;12.43;10.55;;;;;;;;;;5093672;28;20217;-74
2021/10/24 04:26:05;;;;;;;14.90;10.98;;;;;;;;;;5093079;28;20215;-74
2021/10/24 04:28:32;;;;;;;16.30;10.63;;;;;;;;;;5093749;28;20644;-74
2021/10/24 04:31:01;;;;;;;19.10;11.38;;;;;;;;;;5093372;28;20221;-74
2021/10/24 04:33:28;;;;;;;15.32;10.55;;;;;;;;;;5093738;28;20194;-74
2021/10/24 04:35:55;;;;;;;14.35;11.40;;;;;;;;;;5093154;28;20647;-73
2021/10/24 04:38:22;;;;;;;12.25;11.05;;;;;;;;;;5093575;28;20604;-74
2021/10/24 04:40:49;;;;;;;15.63;11.48;;;;;;;;;;5093353;28;20284;-75
2021/10/24 04:43:18;;;;;;;12.07;10.35;;;;;;;;;;5092961;28;20197;-76
2021/10/24 04:45:45;;;;;;;16.85;10.52;;;;;;;;;;5093916;28;20205;-75
2021/10/24 04:48:13;;;;;;;12.25;10.82;;;;;;;;;;5093250;28;20190;-78
2021/10/24 04:50:41;;;;;;;15.82;11.75;;;;;;;;;;5092864;28;20228;-76
2021/10/24 04:53:08;;;;;;;18.27;10.68;;;;;;;;;;5093051;28;20283;-78
2021/10/24 04:55:36;;;;;;;10.70;9.70;;;;;;;;;;5091878;28;20199;-78
2021/10/24 04:58:03;;;;;;;16.85;11.95;;;;;;;;;;5092078;28;20223;-76
2021/10/24 05:00:30;;;;;;;15.68;10.95;;;;;;;;;;5092353;28;20195;-77
2021/10/24 05:02:57;;;;;;;16.92;11.50;;;;;;;;;;5092302;28;20288;-77
2021/10/24 05:05:26;;;;;;;14.63;11.43;;;;;;;;;;5092247;28;20200;-77
2021/10/24 05:07:53;;;;;;;14.85;11.82;;;;;;;;;;5090590;28;20453;-78
2021/10/24 05:10:21;;;;;;;15.45;12.07;;;;;;;;;;5091637;28;20201;-77
2021/10/24 05:12:48;;;;;;;12.52;10.45;;;;;;;;;;5092377;28;20555;-77
2021/10/24 05:15:15;;;;;;;12.75;10.55;;;;;;;;;;5092747;28;20561;-77
2021/10/24 05:17:42;;;;;;;15.65;11.43;;;;;;;;;;5092103;28;20309;-76
2021/10/24 05:20:10;;;;;;;14.48;10.57;;;;;;;;;;5092353;28;20200;-76
2021/10/24 05:22:38;;;;;;;14.57;11.70;;;;;;;;;;5092364;28;20195;-76
2021/10/24 05:25:06;;;;;;;15.70;11.60;;;;;;;;;;5092511;28;20559;-76
2021/10/24 05:27:34;;;;;;;17.98;11.80;;;;;;;;;;5092846;28;20204;-77
2021/10/24 05:30:01;;;;;;;16.52;10.48;;;;;;;;;;5092599;28;20213;-77
2021/10/24 05:32:28;;;;;;;15.65;11.57;;;;;;;;;;5093023;28;20190;-77
2021/10/24 05:34:55;;;;;;;13.20;10.75;;;;;;;;;;5092343;28;20196;-76
2021/10/24 05:37:23;;;;;;;18.73;11.57;;;;;;;;;;5094192;28;20226;-77
2021/10/24 05:39:51;;;;;;;13.43;10.48;;;;;;;;;;5106078;28;20192;-77
2021/10/24 05:42:18;;;;;;;11.43;10.30;;;;;;;;;;5106753;28;20710;-78
2021/10/24 05:44:46;;;;;;;13.45;11.40;;;;;;;;;;5102406;28;20601;-77
2021/10/24 05:47:14;;;;;;;14.85;10.77;;;;;;;;;;5102946;28;20205;-77
2021/10/24 05:49:41;;;;;;;15.20;10.25;;;;;;;;;;5100047;28;20554;-76
2021/10/24 05:52:08;;;;;;;20.08;11.40;;;;;;;;;;5098825;28;20196;-77
2021/10/24 05:54:35;;;;;;;11.63;10.50;;;;;;;;;;5097143;28;20200;-77
2021/10/24 05:57:05;;;;;;;24.42;16.15;;;;;;;;;;5096666;28;20224;-76
2021/10/24 05:59:32;;;;;;;13.25;11.57;;;;;;;;;;5093964;28;20230;-76
2021/10/24 06:01:59;;;;;;;13.32;9.93;;;;;;;;;;5094772;28;20199;-77
2021/10/24 06:04:26;;;;;;;16.33;13.13;;;;;;;;;;5094116;28;20443;-78
2021/10/24 06:06:54;;;;;;;13.88;11.98;;;;;;;;;;5095320;28;20198;-77
2021/10/24 06:09:29;;;;;;;15.30;11.60;;;;;;;;;;5095672;28;20228;-77
2021/10/24 06:11:59;;;;;;;12.27;10.23;;;;;;;;;;5095132;28;20187;-77
2021/10/24 06:14:28;;;;;;;11.88;9.23;;;;;;;;;;5095613;28;20224;-76
2021/10/24 06:16:55;;;;;;;13.73;10.82;;;;;;;;;;5094945;28;20218;-76
2021/10/24 06:19:22;;;;;;;11.85;9.98;;;;;;;;;;5095082;28;20201;-77
2021/10/24 06:21:49;;;;;;;12.45;10.98;;;;;;;;;;5095125;28;20216;-77
2021/10/24 06:24:17;;;;;;;17.73;10.77;;;;;;;;;;5095579;28;20195;-76
2021/10/24 06:26:45;;;;;;;13.50;12.00;;;;;;;;;;5095588;28;20198;-75
2021/10/24 06:29:13;;;;;;;16.83;11.00;;;;;;;;;;5095551;28;20191;-75
2021/10/24 06:31:42;;;;;;;15.85;12.75;;;;;;;;;;5095598;28;20195;-75
2021/10/24 06:34:09;;;;;;;16.25;12.63;;;;;;;;;;5095640;28;20198;-75
2021/10/24 06:36:36;;;;;;;21.40;12.52;;;;;;;;;;5095422;28;20243;-75
2021/10/24 06:39:04;;;;;;;16.60;11.10;;;;;;;;;;5095228;28;20201;-74
2021/10/24 06:41:32;;;;;;;16.70;11.77;;;;;;;;;;5094728;28;20205;-75
2021/10/24 06:43:59;;;;;;;14.80;12.05;;;;;;;;;;5094591;28;20203;-74
2021/10/24 06:46:26;;;;;;;16.75;11.70;;;;;;;;;;5094821;28;20679;-75
2021/10/24 06:48:55;;;;;;;16.80;12.48;;;;;;;;;;5094133;28;20203;-75
2021/10/24 06:51:22;;;;;;;17.13;12.32;;;;;;;;;;5095304;28;20194;-75
2021/10/24 06:53:49;;;;;;;14.90;10.93;;;;;;;;;;5095072;28;20199;-75
2021/10/24 06:56:16;;;;;;;19.95;12.77;;;;;;;;;;5095079;28;20203;-75
2021/10/24 06:58:44;;;;;;;13.77;12.23;;;;;;;;;;5094385;28;20194;-76
2021/10/24 07:01:11;;;;;;;18.55;11.95;;;;;;;;;;5094279;28;20257;-77
2021/10/24 07:03:38;;;;;;;15.15;12.90;;;;;;;;;;5094576;28;20512;-76
2021/10/24 07:06:07;;;;;;;14.90;12.40;;;;;;;;;;5095266;28;20205;-75
2021/10/24 07:08:34;;;;;;;18.20;13.50;;;;;;;;;;5094651;28;20322;-75
2021/10/24 07:11:01;;;;;;;16.88;12.75;;;;;;;;;;5094395;28;20271;-76
2021/10/24 07:13:28;;;;;;;20.15;12.93;;;;;;;;;;5094587;28;20196;-76
2021/10/24 07:15:56;;;;;;;18.50;12.80;;;;;;;;;;5094633;28;20202;-73
2021/10/24 07:18:23;;;;;;;18.25;12.45;;;;;;;;;;5094987;28;20267;-76
2021/10/24 07:20:50;;;;;;;12.95;10.77;;;;;;;;;;5093919;28;20680;-76
2021/10/24 07:23:19;;;;;;;17.10;13.93;;;;;;;;;;5093661;28;20237;-76
2021/10/24 07:25:46;;;;;;;13.85;12.20;;;;;;;;;;5094245;28;20201;-76
2021/10/24 07:28:14;;;;;;;14.25;12.43;;;;;;;;;;5094552;28;20202;-76
2021/10/24 07:30:41;;;;;;;18.38;12.07;;;;;;;;;;5094266;28;20205;-77
2021/10/24 07:33:09;;;;;;;20.10;11.45;;;;;;;;;;5093770;28;20199;-78
2021/10/24 07:35:36;;;;;;;14.63;12.35;;;;;;;;;;5094011;28;20190;-78
2021/10/24 07:38:05;;;;;;;19.67;11.77;;;;;;;;;;5093451;28;20312;-78
2021/10/24 07:40:34;;;;;;;15.40;12.13;;;;;;;;;;5093835;28;20190;-79
2021/10/24 07:43:02;;;;;;;20.83;12.75;;;;;;;;;;5094062;28;20205;-77
2021/10/24 07:45:29;;;;;;;15.55;12.20;;;;;;;;;;5094490;28;20198;-77
2021/10/24 07:47:56;;;;;;;22.17;12.23;;;;;;;;;;5094049;28;20204;-77
2021/10/24 07:50:26;;;;;;;15.02;13.07;;;;;;;;;;5093729;28;20194;-76
2021/10/24 07:52:54;;;;;;;18.25;12.23;;;;;;;;;;5093619;28;20198;-76
2021/10/24 07:55:21;;;;;;;15.70;12.35;;;;;;;;;;5093920;28;20218;-76
2021/10/24 07:57:50;;;;;;;17.73;11.65;;;;;;;;;;5093780;28;20221;-76
2021/10/24 08:00:17;;;;;;;12.93;11.57;;;;;;;;;;5094053;28;20284;-77
2021/10/24 08:02:44;;;;;;;13.57;11.25;;;;;;;;;;5093862;28;20203;-77
2021/10/24 08:05:11;;;;;;;17.10;11.27;;;;;;;;;;5093449;28;20200;-77
2021/10/24 08:07:39;;;;;;;16.40;12.23;;;;;;;;;;5093714;28;20749;-76
2021/10/24 08:10:07;;;;;;;16.52;11.57;;;;;;;;;;5094010;28;20200;-76
2021/10/24 08:12:35;;;;;;;16.35;12.15;;;;;;;;;;5093619;28;20199;-76
2021/10/24 08:15:03;;;;;;;14.95;11.90;;;;;;;;;;5093239;28;20201;-76
2021/10/24 08:17:31;;;;;;;15.45;12.13;;;;;;;;;;5094035;28;20213;-76
2021/10/24 08:19:58;;;;;;;17.63;11.57;;;;;;;;;;5093466;28;20202;-76
2021/10/24 08:22:25;;;;;;;14.93;11.68;;;;;;;;;;5093389;28;20576;-76
2021/10/24 08:24:54;;;;;;;17.55;13.50;;;;;;;;;;5093837;28;20638;-77
2021/10/24 08:27:21;;;;;;;15.43;11.13;;;;;;;;;;5093428;28;20226;-77
2021/10/24 08:29:48;;;;;;;14.60;10.93;;;;;;;;;;5093701;28;20286;-76
2021/10/24 08:32:17;;;;;;;13.20;10.77;;;;;;;;;;5093048;28;20205;-76
2021/10/24 08:34:44;;;;;;;18.38;12.35;;;;;;;;;;5093026;28;20203;-76
2021/10/24 08:37:12;;;;;;;13.45;11.20;;;;;;;;;;5092850;28;20222;-76
2021/10/24 08:39:41;;;;;;;13.05;11.23;;;;;;;;;;5092917;28;20196;-77
2021/10/24 08:42:08;;;;;;;17.00;10.50;;;;;;;;;;5093312;28;20197;-76
2021/10/24 08:44:36;;;;;;;15.32;10.68;;;;;;;;;;5092905;28;20202;-76
2021/10/24 08:47:04;;;;;;;13.65;10.40;;;;;;;;;;5093111;28;20195;-76
2021/10/24 08:49:32;;;;;;;15.00;11.20;;;;;;;;;;5093188;28;20573;-76
2021/10/24 08:52:00;;;;;;;11.13;9.70;;;;;;;;;;5092791;28;20199;-77
2021/10/24 08:54:28;;;;;;;12.70;10.60;;;;;;;;;;5093212;28;20604;-77
2021/10/24 08:56:55;;;;;;;13.90;10.48;;;;;;;;;;5093004;28;20203;-77
2021/10/24 08:59:23;;;;;;;22.40;10.63;;;;;;;;;;5092703;28;20201;-76
2021/10/24 09:01:51;;;;;;;11.77;10.38;;;;;;;;;;5093033;28;20529;-74
2021/10/24 09:04:18;;;;;;;11.68;9.75;;;;;;;;;;5092827;28;20212;-79
2021/10/24 09:06:48;;;;;;;14.13;10.10;;;;;;;;;;5093429;28;20200;-76
2021/10/24 09:09:16;;;;;;;11.20;9.40;;;;;;;;;;5093045;28;20319;-78
2021/10/24 09:11:43;;;;;;;12.98;8.70;;;;;;;;;;5094509;28;20311;-77
2021/10/24 09:14:12;;;;;;;11.02;8.40;;;;;;;;;;5096806;28;20199;-77
2021/10/24 09:16:52;;;;;;;15.98;8.48;;;;;;;;;;5096438;28;20193;-76
2021/10/24 09:19:19;;;;;;;10.50;7.90;;;;;;;;;;5096613;28;20216;-78
2021/10/24 09:21:48;;;;;;;14.52;9.55;;;;;;;;;;5096311;28;20196;-77
2021/10/24 09:24:15;;;;;;;19.40;9.40;;;;;;;;;;5096213;28;20199;-78
2021/10/24 09:26:43;;;;;;;12.45;8.77;;;;;;;;;;5096544;28;20200;-77
2021/10/24 09:29:10;;;;;;;13.75;8.13;;;;;;;;;;5096263;28;20199;-77
2021/10/24 09:31:40;;;;;;;8.68;7.57;;;;;;;;;;5096486;28;20202;-79
2021/10/24 09:34:12;;;;;;;13.25;8.05;;;;;;;;;;5096058;28;20721;-77
2021/10/24 09:36:49;;;;;;;12.02;9.18;;;;;;;;;;5096437;28;20598;-78
2021/10/24 09:39:16;;;;;;;10.77;8.43;;;;;;;;;;5096737;28;20215;-77
2021/10/24 09:41:44;;;;;;;8.98;7.72;;;;;;;;;;5096217;28;20192;-76
2021/10/24 09:44:13;;;;;;;15.47;8.40;;;;;;;;;;5096913;28;20621;-77
2021/10/24 09:46:49;;;;;;;6.80;6.15;;;;;;;;;;5096271;28;20447;-78
2021/10/24 09:49:18;;;;;;;12.83;6.30;;;;;;;;;;5095697;28;20181;-77
2021/10/24 09:51:45;;;;;;;16.77;10.23;;;;;;;;;;5095907;28;20447;-76
2021/10/24 09:54:19;;;;;;;13.57;6.60;;;;;;;;;;5095675;28;20895;-77
2021/10/24 09:56:47;;;;;;;8.18;5.40;;;;;;;;;;5095714;28;20637;-77
2021/10/24 09:59:16;;;;;;;8.67;5.23;;;;;;;;;;5096150;28;20221;-77
2021/10/24 10:01:44;;;;;;;11.43;5.30;;;;;;;;;;5096086;28;20555;-77
2021/10/24 10:04:17;;;;;;;5.50;4.80;;;;;;;;;;5096654;28;20446;-77
2021/10/24 10:06:45;;;;;;;6.97;4.70;;;;;;;;;;5096045;28;20431;-77
2021/10/24 10:09:13;;;;;;;6.93;5.00;;;;;;;;;;5096240;28;20906;-77
2021/10/24 10:11:47;;;;;;;8.07;4.87;;;;;;;;;;5095798;28;20443;-76
2021/10/24 10:14:15;;;;;;;5.20;4.70;;;;;;;;;;5095356;28;20428;-76
2021/10/24 10:16:44;;;;;;;6.22;4.68;;;;;;;;;;5095067;28;20450;-76
2021/10/24 10:19:12;;;;;;;6.73;4.60;;;;;;;;;;5095538;28;20556;-76
2021/10/24 10:21:40;;;;;;;7.97;4.78;;;;;;;;;;5095817;28;20535;-76
2021/10/24 10:24:08;;;;;;;5.53;4.40;;;;;;;;;;5094499;28;20190;-77
2021/10/24 10:26:36;;;;;;;6.10;4.53;;;;;;;;;;5095182;28;20451;-77
2021/10/24 10:29:06;;;;;;;9.77;6.00;;;;;;;;;;5095003;28;20928;-76
2021/10/24 10:31:34;;;;;;;6.73;4.30;;;;;;;;;;5095112;28;20427;-76
2021/10/24 10:34:02;;;;;;;6.00;4.27;;;;;;;;;;5095186;28;20839;-77
2021/10/24 10:36:48;;;;;;;6.90;3.90;;;;;;;;;;5095406;28;20526;-76
2021/10/24 10:39:39;;;;;;;7.73;3.90;;;;;;;;;;5095445;28;20476;-77
2021/10/24 10:42:26;;;;;;;6.37;4.10;;;;;;;;;;5095913;28;20776;-77
2021/10/24 10:45:08;;;;;;;6.13;4.27;;;;;;;;;;5094984;28;20450;-77
2021/10/24 10:47:52;;;;;;;13.10;4.37;;;;;;;;;;5094242;28;20790;-76
2021/10/24 10:50:41;;;;;;;6.67;5.97;;;;;;;;;;5095182;28;20514;-76
2021/10/24 10:53:09;;;;;;;4.63;4.00;;;;;;;;;;5062122;28;20577;-77
2021/10/24 10:55:51;;;;;;;7.83;4.70;;;;;;;;;;5095430;28;20448;-76
2021/10/24 10:58:28;;;;;;;4.83;3.80;;;;;;;;;;5094159;28;20483;-76
2021/10/24 11:00:56;;;;;;;4.60;3.87;;;;;;;;;;5095633;28;20456;-76
2021/10/24 11:03:38;;;;;;;3.63;3.23;;;;;;;;;;5095124;28;20928;-78
2021/10/24 11:06:10;;;;;;;4.13;3.30;;;;;;;;;;5098483;28;20439;-78
2021/10/24 11:08:46;;;;;;;7.90;4.00;;;;;;;;;;5103033;28;20548;-77
2021/10/24 11:11:13;;;;;;;7.57;3.07;;;;;;;;;;5102132;28;20426;-78
2021/10/24 11:13:42;;;;;;;3.73;3.43;;;;;;;;;;5100604;28;20455;-76
2021/10/24 11:16:27;;;;;;;4.20;3.27;;;;;;;;;;5095229;28;20527;-77
2021/10/24 11:18:54;;;;;;;5.50;3.47;;;;;;;;;;5096327;28;20467;-77
2021/10/24 11:21:27;;;;;;;3.97;3.40;;;;;;;;;;5098081;28;20439;-77
2021/10/24 11:23:56;;;;;;;7.80;4.70;;;;;;;;;;5096996;28;20427;-77
2021/10/24 11:26:23;;;;;;;4.57;3.70;;;;;;;;;;5095271;28;20439;-77
2021/10/24 11:28:51;;;;;;;6.50;3.73;;;;;;;;;;5093780;28;20888;-77
2021/10/24 11:31:19;;;;;;;9.60;3.93;;;;;;;;;;5093957;28;20445;-77
2021/10/24 11:33:47;;;;;;;7.10;3.30;;;;;;;;;;5093295;28;20501;-76
2021/10/24 11:36:15;;;;;;;6.37;3.70;;;;;;;;;;5093605;28;20462;-76
2021/10/24 11:38:43;;;;;;;4.07;3.30;;;;;;;;;;5093364;28;20489;-76
2021/10/24 11:41:20;;;;;;;4.80;3.43;;;;;;;;;;5093827;28;20444;-76
2021/10/24 11:43:48;;;;;;;5.30;3.80;;;;;;;;;;5094072;28;20514;-76
2021/10/24 11:46:16;;;;;;;8.17;3.80;;;;;;;;;;5094552;28;20453;-77
2021/10/24 11:48:43;;;;;;;6.27;3.53;;;;;;;;;;5093955;28;20444;-77
2021/10/24 11:51:10;;;;;;;5.53;3.37;;;;;;;;;;5094003;28;20439;-77
2021/10/24 11:53:39;;;;;;;4.77;3.90;;;;;;;;;;5093194;28;20439;-75
2021/10/24 11:56:08;;;;;;;7.53;3.40;;;;;;;;;;5093124;28;20801;-77
2021/10/24 11:58:41;;;;;;;5.77;3.40;;;;;;;;;;5092784;28;20559;-76
2021/10/24 12:01:09;;;;;;;4.70;3.80;;;;;;;;;;5092844;28;20435;-76
2021/10/24 12:03:38;;;;;;;6.63;4.40;;;;;;;;;;5085089;28;20926;-75
2021/10/24 12:06:06;;;;;;;6.03;3.67;;;;;;;;;;5072227;28;20452;-75
2021/10/24 12:08:43;;;;;;;3.67;3.30;;;;;;;;;;5071356;28;20480;-76
2021/10/24 12:11:16;;;;;;;4.13;3.80;;;;;;;;;;5073105;28;20956;-76
2021/10/24 12:13:43;;;;;;;4.33;3.93;;;;;;;;;;5073204;28;20426;-76
2021/10/24 12:16:24;;;;;;;5.13;3.33;;;;;;;;;;5073322;28;21014;-76
2021/10/24 12:18:51;;;;;;;4.50;3.30;;;;;;;;;;5072747;28;20503;-76
2021/10/24 12:21:26;;;;;;;4.67;3.90;;;;;;;;;;5072891;28;20479;-76
2021/10/24 12:23:53;;;;;;;5.07;3.83;;;;;;;;;;5073334;28;20443;-76
2021/10/24 12:26:33;;;;;;;8.90;3.20;;;;;;;;;;5073015;28;20448;-78
2021/10/24 12:29:12;;;;;;;6.43;4.03;;;;;;;;;;5073329;28;20435;-77
2021/10/24 12:31:40;;;;;;;4.93;3.10;;;;;;;;;;5072658;28;20433;-75
2021/10/24 12:34:12;;;;;;;6.20;3.80;;;;;;;;;;5070729;28;20521;-76
2021/10/24 12:36:40;;;;;;;5.83;3.17;;;;;;;;;;5073152;28;20432;-77
2021/10/24 12:39:08;;;;;;;6.43;3.33;;;;;;;;;;5073597;28;20970;-76
2021/10/24 12:41:36;;;;;;;6.40;3.70;;;;;;;;;;5073329;28;20451;-76
2021/10/24 12:44:04;;;;;;;7.37;3.60;;;;;;;;;;5072559;28;20541;-77
2021/10/24 12:46:33;;;;;;;6.00;4.03;;;;;;;;;;5072166;28;20475;-76
2021/10/24 12:49:09;;;;;;;7.73;4.07;;;;;;;;;;5072571;28;20445;-76
2021/10/24 12:51:37;;;;;;;6.27;3.70;;;;;;;;;;5072751;28;20439;-77
2021/10/24 12:54:05;;;;;;;4.07;3.77;;;;;;;;;;5072630;28;20444;-76
2021/10/24 12:56:34;;;;;;;4.43;3.80;;;;;;;;;;5072491;28;20538;-76
2021/10/24 12:59:03;;;;;;;4.00;3.60;;;;;;;;;;5072753;28;20481;-76
2021/10/24 13:01:31;;;;;;;4.20;3.47;;;;;;;;;;5072539;28;20441;-76
2021/10/24 13:03:59;;;;;;;6.97;3.63;;;;;;;;;;5072195;28;20440;-76
2021/10/24 13:06:27;;;;;;;6.03;4.20;;;;;;;;;;5090242;28;20455;-78
2021/10/24 13:08:56;;;;;;;4.33;3.40;;;;;;;;;;5092525;28;20475;-76
2021/10/24 13:11:24;;;;;;;4.10;3.70;;;;;;;;;;5092545;28;20441;-76
2021/10/24 13:13:51;;;;;;;3.57;2.80;;;;;;;;;;5092353;28;20439;-76
2021/10/24 13:16:20;;;;;;;3.57;3.27;;;;;;;;;;5092591;28;20463;-76
2021/10/24 13:18:47;;;;;;;7.60;3.67;;;;;;;;;;5092738;28;20463;-77
2021/10/24 13:22:54;;;;;;;5.73;3.57;;;;;;;;;;5092327;28;20437;-77
2021/10/24 13:24:04;;;;;;;3.30;2.87;;;;;;;;;;5092430;28;20909;-78
2021/10/24 13:26:32;;;;;;;4.67;3.53;;;;;;;;;;5092582;28;20516;-77
2021/10/24 13:29:00;;;;;;;4.40;3.73;;;;;;;;;;5092519;28;20444;-77
2021/10/24 13:31:28;;;;;;;12.33;6.90;;;;;;;;;;5092680;28;20798;-77
2021/10/24 13:33:56;;;;;;;10.60;5.00;;;;;;;;;;5092237;28;20777;-76
2021/10/24 13:36:23;;;;;;;12.73;6.50;;;;;;;;;;5076194;28;20534;-77
2021/10/24 13:38:50;;;;;;;6.50;5.17;;;;;;;;;;5072230;28;20817;-76
2021/10/24 13:41:18;;;;;;;7.77;5.50;;;;;;;;;;5072524;28;20437;-76
2021/10/24 13:43:45;;;;;;;7.00;4.00;;;;;;;;;;5071936;28;20447;-76
2021/10/24 13:46:12;;;;;;;6.80;4.57;;;;;;;;;;5072107;28;20522;-77
2021/10/24 13:48:41;;;;;;;9.90;4.90;;;;;;;;;;5072544;28;20443;-76
2021/10/24 13:51:09;;;;;;;5.00;4.17;;;;;;;;;;5071689;28;20938;-76
2021/10/24 13:53:36;;;;;;;4.73;4.23;;;;;;;;;;5070709;28;20528;-76
2021/10/24 13:56:04;;;;;;;4.37;3.80;;;;;;;;;;5071617;28;20439;-75
2021/10/24 13:58:31;;;;;;;7.63;5.03;;;;;;;;;;5074756;28;20444;-75
2021/10/24 14:00:58;;;;;;;9.10;6.10;;;;;;;;;;5075741;28;20927;-76
2021/10/24 14:03:26;;;;;;;12.50;6.70;;;;;;;;;;5075739;28;20447;-76
2021/10/24 14:05:55;;;;;;;11.30;6.83;;;;;;;;;;5075560;28;20477;-76
2021/10/24 14:08:22;;;;;;;10.53;6.60;;;;;;;;;;5075525;28;20478;-76
2021/10/24 14:10:50;;;;;;;12.90;9.10;;;;;;;;;;5075225;28;20540;-75
2021/10/24 14:13:18;;;;;;;10.13;8.43;;;;;;;;;;5075315;28;20539;-76
2021/10/24 14:15:45;;;;;;;13.50;8.30;;;;;;;;;;5075012;28;20555;-76
2021/10/24 14:18:13;;;;;;;8.47;5.60;;;;;;;;;;5075733;28;20445;-76
2021/10/24 14:20:40;;;;;;;8.33;5.47;;;;;;;;;;5075622;28;20479;-75
2021/10/24 14:23:09;;;;;;;5.47;4.97;;;;;;;;;;5074899;28;20497;-75
2021/10/24 14:25:36;;;;;;;6.60;4.53;;;;;;;;;;5073653;28;20443;-75
2021/10/24 14:28:03;;;;;;;7.53;5.03;;;;;;;;;;5075398;28;20792;-75
2021/10/24 14:30:31;;;;;;;4.57;4.03;;;;;;;;;;5075145;28;20440;-75
2021/10/24 14:32:58;;;;;;;10.20;4.43;;;;;;;;;;5075296;28;20442;-75